createdAt,value
2023-07-24T00:00:27.664Z,6.10
2023-07-24T00:04:21.528Z,9.20
2023-07-24T00:07:49.498Z,7.30
2023-07-24T00:11:21.187Z,9.40
2023-07-24T00:15:00.337Z,6.90
2023-07-24T00:18:42.340Z,7.80
2023-07-24T00:22:13.748Z,5.40
2023-07-24T00:25:54.222Z,7.60
2023-07-24T00:29:44.868Z,8.50
2023-07-24T00:33:22.942Z,7.60
2023-07-24T00:37:11.910Z,6.50
2023-07-24T00:40:51.088Z,6.30
2023-07-24T00:44:32.917Z,8.20
2023-07-24T00:48:14.811Z,7.30
2023-07-24T00:52:07.751Z,6.90
2023-07-24T00:55:49.815Z,6.20
2023-07-24T00:59:28.698Z,9.40
2023-07-24T01:03:18.271Z,5.70
2023-07-24T01:06:50.034Z,7.00
2023-07-24T01:10:31.721Z,6.30
2023-07-24T01:14:14.650Z,6.30
2023-07-24T01:17:43.867Z,10.50
2023-07-24T01:21:32.924Z,6.30
2023-07-24T01:25:33.779Z,7.80
2023-07-24T01:29:21.673Z,7.60
2023-07-24T01:33:04.209Z,7.70
2023-07-24T01:36:53.297Z,7.90
2023-07-24T01:40:15.884Z,7.40
2023-07-24T01:43:53.628Z,8.80
2023-07-24T01:47:42.692Z,7.20
2023-07-24T01:51:31.712Z,6.10
2023-07-24T01:55:20.723Z,8.60
2023-07-24T01:58:59.857Z,8.50
2023-07-24T02:02:49.015Z,6.70
2023-07-24T02:06:38.340Z,6.20
2023-07-24T02:10:27.332Z,7.00
2023-07-24T02:14:10.134Z,6.60
2023-07-24T02:17:59.362Z,8.30
2023-07-24T02:21:44.551Z,7.60
2023-07-24T02:25:33.716Z,8.10
2023-07-24T02:29:15.221Z,7.70
2023-07-24T02:33:04.510Z,7.60
2023-07-24T02:36:33.467Z,9.50
2023-07-24T02:40:22.869Z,6.10
2023-07-24T02:44:11.872Z,6.70
2023-07-24T02:48:00.888Z,7.40
2023-07-24T02:51:50.187Z,7.20
2023-07-24T02:55:39.298Z,7.40
2023-07-24T02:59:28.086Z,10.10
2023-07-24T03:03:17.189Z,6.20
2023-07-24T03:07:06.301Z,9.90
2023-07-24T03:10:48.017Z,8.60
2023-07-24T03:14:37.120Z,8.20
2023-07-24T03:18:26.475Z,6.70
2023-07-24T03:22:15.437Z,8.00
2023-07-24T03:25:57.676Z,9.90
2023-07-24T03:29:26.570Z,5.80
2023-07-24T03:33:15.566Z,7.90
2023-07-24T03:37:04.632Z,8.10
2023-07-24T03:40:53.946Z,9.00
2023-07-24T03:44:43.147Z,6.90
2023-07-24T03:48:25.873Z,8.30
2023-07-24T03:52:14.900Z,7.90
2023-07-24T03:56:04.155Z,8.80
2023-07-24T03:59:53.404Z,10.30
2023-07-24T04:03:42.709Z,10.30
2023-07-24T04:07:31.666Z,8.10
2023-07-24T04:11:20.739Z,9.70
2023-07-24T04:15:02.920Z,13.40
2023-07-24T04:18:44.291Z,10.30
2023-07-24T04:22:23.246Z,9.80
2023-07-24T04:26:12.419Z,11.10
2023-07-24T04:30:01.380Z,9.80
2023-07-24T04:33:50.432Z,9.90
2023-07-24T04:37:39.447Z,12.50
2023-07-24T04:41:18.401Z,11.60
2023-07-24T04:45:07.355Z,11.90
2023-07-24T04:48:56.098Z,13.10
2023-07-24T04:52:27.564Z,20.80
2023-07-24T04:56:15.016Z,17.10
2023-07-24T05:00:04.050Z,12.40
2023-07-24T05:03:28.947Z,16.00
2023-07-24T05:07:01.144Z,13.10
2023-07-24T05:10:32.805Z,14.60
2023-07-24T05:14:22.267Z,11.30
2023-07-24T05:17:58.501Z,16.20
2023-07-24T05:21:36.571Z,13.90
2023-07-24T05:24:50.360Z,11.60
2023-07-24T05:28:39.522Z,15.10
2023-07-24T05:32:11.451Z,14.90
2023-07-24T05:35:44.443Z,13.60
2023-07-24T05:39:15.915Z,9.90
2023-07-24T05:42:46.915Z,9.20
2023-07-24T05:46:36.092Z,12.80
2023-07-24T05:50:25.198Z,10.30
2023-07-24T05:54:14.498Z,9.60
2023-07-24T05:58:03.626Z,10.50
2023-07-24T06:01:35.483Z,10.50
2023-07-24T06:05:23.384Z,8.80
2023-07-24T06:09:12.551Z,11.00
2023-07-24T06:13:00.685Z,9.20
2023-07-24T06:16:29.985Z,10.90
2023-07-24T06:19:41.697Z,12.30
2023-07-24T06:23:07.442Z,13.30
2023-07-24T06:26:46.907Z,12.10
2023-07-24T06:30:16.683Z,11.40
2023-07-24T06:33:22.961Z,10.20
2023-07-24T06:36:49.843Z,10.60
2023-07-24T06:40:05.902Z,11.30
2023-07-24T06:43:53.918Z,11.60
2023-07-24T06:47:02.726Z,16.70
2023-07-24T06:50:31.019Z,12.30
2023-07-24T06:53:42.815Z,13.10
2023-07-24T06:57:23.685Z,11.70
2023-07-24T07:00:45.678Z,22.80
2023-07-24T07:03:36.357Z,17.00
2023-07-24T07:06:51.574Z,9.80
2023-07-24T07:10:06.522Z,17.60
2023-07-24T07:12:53.956Z,10.40
2023-07-24T07:15:59.282Z,17.20
2023-07-24T07:19:08.195Z,11.70
2023-07-24T07:22:37.442Z,12.30
2023-07-24T07:26:08.320Z,12.40
2023-07-24T07:29:19.973Z,12.40
2023-07-24T07:32:28.825Z,13.90
2023-07-24T07:35:42.094Z,10.30
2023-07-24T07:38:40.542Z,10.40
2023-07-24T07:41:48.110Z,12.00
2023-07-24T07:45:27.193Z,10.10
2023-07-24T07:48:39.653Z,8.60
2023-07-24T07:51:39.774Z,12.40
2023-07-24T07:54:51.453Z,7.50
2023-07-24T07:58:10.637Z,7.80
2023-07-24T08:00:55.105Z,6.70
2023-07-24T08:04:18.202Z,7.30
2023-07-24T08:07:07.037Z,8.30
2023-07-24T08:10:05.981Z,10.10
2023-07-24T08:13:34.966Z,9.20
2023-07-24T08:16:18.722Z,8.40
2023-07-24T08:19:30.877Z,10.10
2023-07-24T08:22:13.276Z,7.20
2023-07-24T08:25:23.514Z,6.70
2023-07-24T08:28:30.985Z,11.00
2023-07-24T08:31:16.288Z,7.00
2023-07-24T08:34:20.711Z,6.70
2023-07-24T08:37:32.291Z,7.20
2023-07-24T08:40:12.492Z,6.80
2023-07-24T08:42:51.357Z,7.50
2023-07-24T08:45:33.250Z,8.20
2023-07-24T08:48:50.619Z,8.40
2023-07-24T08:51:34.574Z,7.60
2023-07-24T08:54:36.651Z,6.40
2023-07-24T08:57:17.062Z,7.00
2023-07-24T09:00:08.222Z,7.50
2023-07-24T09:02:56.741Z,7.70
2023-07-24T09:06:23.065Z,6.20
2023-07-24T09:08:58.976Z,9.10
2023-07-24T09:11:35.672Z,6.50
2023-07-24T09:14:48.079Z,6.10
2023-07-24T09:17:38.480Z,5.60
2023-07-24T09:20:32.051Z,6.10
2023-07-24T09:23:15.451Z,5.30
2023-07-24T09:25:47.986Z,8.20
2023-07-24T09:28:22.965Z,6.10
2023-07-24T09:31:01.745Z,6.20
2023-07-24T09:33:56.210Z,7.30
2023-07-24T09:36:49.350Z,6.90
2023-07-24T09:39:40.610Z,7.80
2023-07-24T09:42:11.445Z,5.30
2023-07-24T09:44:45.531Z,6.30
2023-07-24T09:48:09.984Z,6.50
2023-07-24T09:50:59.711Z,7.20
2023-07-24T09:53:55.398Z,7.00
2023-07-24T09:56:43.458Z,6.30
2023-07-24T09:59:39.308Z,5.90
2023-07-24T10:02:07.730Z,5.20
2023-07-24T10:04:57.912Z,7.60
2023-07-24T10:07:31.537Z,6.30
2023-07-24T10:10:22.353Z,7.10
2023-07-24T10:12:53.707Z,6.10
2023-07-24T10:15:43.402Z,4.80
2023-07-24T10:18:14.770Z,6.70
2023-07-24T10:20:56.345Z,10.20
2023-07-24T10:23:49.702Z,6.10
2023-07-24T10:26:29.871Z,7.00
2023-07-24T10:29:03.355Z,5.00
2023-07-24T10:31:44.463Z,7.00
2023-07-24T10:34:15.336Z,4.50
2023-07-24T10:36:52.622Z,7.40
2023-07-24T10:39:23.427Z,5.20
2023-07-24T10:41:56.680Z,6.20
2023-07-24T10:44:44.017Z,7.60
2023-07-24T10:47:12.841Z,6.30
2023-07-24T10:49:49.835Z,5.20
2023-07-24T10:52:29.473Z,5.00
2023-07-24T10:55:00.298Z,6.80
2023-07-24T10:57:29.775Z,6.00
2023-07-24T10:59:57.949Z,5.40
2023-07-24T11:02:26.353Z,6.90
2023-07-24T11:04:54.665Z,6.70
2023-07-24T11:07:23.282Z,6.00
2023-07-24T11:09:54.461Z,6.60
2023-07-24T11:12:23.977Z,5.50
2023-07-24T11:14:55.332Z,5.80
2023-07-24T11:17:23.672Z,7.00
2023-07-24T11:19:51.935Z,6.30
2023-07-24T11:22:22.955Z,5.80
2023-07-24T11:24:51.148Z,5.80
2023-07-24T11:27:20.289Z,7.10
2023-07-24T11:29:50.549Z,6.70
2023-07-24T11:32:21.983Z,5.10
2023-07-24T11:34:51.055Z,6.00
2023-07-24T11:37:22.294Z,6.40
2023-07-24T11:40:06.033Z,6.30
2023-07-24T11:42:34.090Z,6.50
2023-07-24T11:45:02.373Z,6.80
2023-07-24T11:47:33.434Z,6.70
2023-07-24T11:50:01.807Z,7.00
2023-07-24T11:52:49.164Z,9.10
2023-07-24T11:55:18.951Z,7.30
2023-07-24T11:58:00.017Z,5.80
2023-07-24T12:00:29.174Z,6.60
2023-07-24T12:03:07.822Z,6.80
2023-07-24T12:05:41.085Z,8.60
2023-07-24T12:08:12.066Z,7.80
2023-07-24T12:10:40.827Z,7.40
2023-07-24T12:13:09.020Z,9.70
2023-07-24T12:15:37.509Z,6.40
2023-07-24T12:18:06.154Z,8.70
2023-07-24T12:20:36.016Z,10.10
2023-07-24T12:23:04.181Z,7.00
2023-07-24T12:25:32.219Z,6.30
2023-07-24T12:28:00.351Z,6.30
2023-07-24T12:30:28.543Z,9.90
2023-07-24T12:32:56.874Z,6.30
2023-07-24T12:35:25.095Z,7.00
2023-07-24T12:37:53.195Z,6.30
2023-07-24T12:40:21.298Z,7.30
2023-07-24T12:42:49.490Z,6.70
2023-07-24T12:45:17.631Z,8.30
2023-07-24T12:47:46.588Z,7.70
2023-07-24T12:50:14.760Z,6.40
2023-07-24T12:52:42.836Z,7.70
2023-07-24T12:55:11.504Z,8.70
2023-07-24T12:57:39.634Z,8.00
2023-07-24T13:00:09.234Z,9.10
2023-07-24T13:02:38.150Z,8.80
2023-07-24T13:05:06.600Z,7.60
2023-07-24T13:07:34.853Z,8.40
2023-07-24T13:10:02.991Z,7.30
2023-07-24T13:12:31.466Z,7.20
2023-07-24T13:14:59.518Z,9.20
2023-07-24T13:17:27.841Z,9.80
2023-07-24T13:19:56.264Z,7.80
2023-07-24T13:22:24.466Z,11.10
2023-07-24T13:24:52.710Z,10.90
2023-07-24T13:27:20.998Z,7.20
2023-07-24T13:29:52.239Z,12.00
2023-07-24T13:32:20.437Z,10.90
2023-07-24T13:34:49.206Z,9.00
2023-07-24T13:37:17.218Z,9.20
2023-07-24T13:39:45.269Z,10.00
2023-07-24T13:42:13.285Z,9.00
2023-07-24T13:44:41.450Z,10.50
2023-07-24T13:47:09.622Z,7.80
2023-07-24T13:49:37.722Z,8.80
2023-07-24T13:52:05.867Z,8.00
2023-07-24T13:54:34.113Z,9.80
2023-07-24T13:57:02.318Z,9.30
2023-07-24T13:59:30.623Z,8.60
2023-07-24T14:01:58.730Z,9.40
2023-07-24T14:04:26.899Z,11.40
2023-07-24T14:06:55.010Z,9.60
2023-07-24T14:09:23.091Z,11.90
2023-07-24T14:11:51.187Z,9.00
2023-07-24T14:14:19.278Z,10.80
2023-07-24T14:16:47.340Z,9.70
2023-07-24T14:19:16.226Z,8.10
2023-07-24T14:21:45.573Z,10.20
2023-07-24T14:24:14.894Z,10.40
2023-07-24T14:26:43.090Z,9.20
2023-07-24T14:29:11.276Z,10.50
2023-07-24T14:31:42.217Z,11.00
2023-07-24T14:34:13.813Z,11.00
2023-07-24T14:36:44.968Z,10.00
2023-07-24T14:39:12.956Z,10.70
2023-07-24T14:41:41.109Z,13.30
2023-07-24T14:44:12.055Z,12.40
2023-07-24T14:46:49.351Z,10.80
2023-07-24T14:49:17.427Z,13.00
2023-07-24T14:51:45.780Z,10.80
2023-07-24T14:54:16.674Z,11.10
2023-07-24T14:56:57.013Z,11.70
2023-07-24T14:59:30.603Z,10.90
2023-07-24T15:02:01.580Z,12.30
2023-07-24T15:04:29.868Z,11.00
2023-07-24T15:07:03.727Z,10.60
2023-07-24T15:09:34.642Z,10.10
2023-07-24T15:12:02.971Z,10.60
2023-07-24T15:14:31.136Z,10.20
2023-07-24T15:16:59.551Z,8.90
2023-07-24T15:19:27.772Z,14.00
2023-07-24T15:21:56.093Z,13.70
2023-07-24T15:24:27.363Z,9.30
2023-07-24T15:26:55.695Z,9.50
2023-07-24T15:29:23.950Z,12.20
2023-07-24T15:31:52.108Z,10.70
2023-07-24T15:34:22.786Z,12.20
2023-07-24T15:36:50.866Z,11.60
2023-07-24T15:39:19.184Z,11.80
2023-07-24T15:41:49.456Z,12.30
2023-07-24T15:44:17.596Z,10.90
2023-07-24T15:46:48.258Z,11.50
2023-07-24T15:49:16.626Z,11.20
2023-07-24T15:51:45.007Z,9.80
2023-07-24T15:54:13.186Z,13.30
2023-07-24T15:56:41.608Z,17.10
2023-07-24T15:59:12.579Z,13.00
2023-07-24T16:01:41.018Z,10.50
2023-07-24T16:04:09.293Z,10.80
2023-07-24T16:06:46.485Z,13.50
2023-07-24T16:09:14.843Z,11.10
2023-07-24T16:11:45.397Z,13.30
2023-07-24T16:14:15.739Z,12.00
2023-07-24T16:16:44.055Z,12.00
2023-07-24T16:19:22.582Z,14.90
2023-07-24T16:21:51.464Z,10.80
2023-07-24T16:24:49.782Z,13.60
2023-07-24T16:27:40.389Z,14.50
2023-07-24T16:30:12.896Z,11.10
2023-07-24T16:32:49.905Z,11.10
2023-07-24T16:35:19.432Z,9.60
2023-07-24T16:37:55.631Z,9.90
2023-07-24T16:40:36.481Z,10.80
2023-07-24T16:43:05.176Z,9.20
2023-07-24T16:48:45.098Z,12.70
2023-07-24T16:51:18.878Z,10.60
2023-07-24T16:54:07.092Z,12.00
2023-07-24T16:56:44.102Z,11.00
2023-07-24T16:59:34.984Z,12.80
2023-07-24T17:02:13.448Z,13.90
2023-07-24T17:04:42.016Z,13.60
2023-07-24T17:07:19.202Z,14.90
2023-07-24T17:09:50.863Z,12.50
2023-07-24T17:12:37.894Z,12.90
2023-07-24T17:17:57.392Z,11.50
2023-07-24T17:20:28.515Z,12.60
2023-07-24T17:22:59.821Z,12.30
2023-07-24T17:25:37.144Z,12.90
2023-07-24T17:28:06.084Z,12.10
2023-07-24T17:30:47.991Z,13.90
2023-07-24T17:33:23.438Z,12.10
2023-07-24T17:36:07.001Z,13.10
2023-07-24T17:38:35.299Z,14.60
2023-07-24T17:41:31.608Z,13.10
2023-07-24T17:44:05.681Z,12.90
2023-07-24T17:46:36.549Z,13.70
2023-07-24T17:49:30.382Z,20.10
2023-07-24T17:52:06.440Z,14.00
2023-07-24T17:54:34.851Z,13.30
2023-07-24T17:57:54.864Z,13.70
2023-07-24T18:00:30.744Z,16.00
2023-07-24T18:03:04.564Z,12.90
2023-07-24T18:05:35.757Z,13.10
2023-07-24T18:08:14.146Z,13.20
2023-07-24T18:10:58.926Z,14.50
2023-07-24T18:13:35.959Z,14.60
2023-07-24T18:16:36.126Z,14.70
2023-07-24T18:19:09.871Z,15.70
2023-07-24T18:21:48.178Z,14.80
2023-07-24T18:24:30.536Z,14.00
2023-07-24T18:27:09.855Z,16.10
2023-07-24T18:29:46.036Z,17.10
2023-07-24T18:32:30.248Z,15.00
2023-07-24T18:34:59.031Z,16.20
2023-07-24T18:37:29.814Z,14.30
2023-07-24T18:40:06.590Z,17.00
2023-07-24T18:43:17.750Z,15.20
2023-07-24T18:46:06.509Z,14.00
2023-07-24T18:49:06.956Z,15.20
2023-07-24T18:52:01.131Z,14.10
2023-07-24T18:54:52.476Z,14.80
2023-07-24T18:57:34.095Z,14.20
2023-07-24T19:00:18.813Z,15.20
2023-07-24T19:03:07.633Z,15.10
2023-07-24T19:05:36.014Z,15.00
2023-07-24T19:08:13.650Z,13.90
2023-07-24T19:10:49.208Z,13.70
2023-07-24T19:13:29.453Z,15.00
2023-07-24T19:16:01.402Z,15.00
2023-07-24T19:19:05.631Z,16.40
2023-07-24T19:21:59.733Z,16.20
2023-07-24T19:24:39.990Z,16.60
2023-07-24T19:27:11.579Z,15.70
2023-07-24T19:30:00.284Z,16.40
2023-07-24T19:32:59.386Z,16.80
2023-07-24T19:35:56.822Z,16.20
2023-07-24T19:41:19.207Z,15.80
2023-07-24T19:43:52.891Z,15.10
2023-07-24T19:49:41.613Z,17.60
2023-07-24T19:52:39.309Z,17.20
2023-07-24T19:55:35.969Z,17.60
2023-07-24T19:58:30.626Z,16.70
2023-07-24T20:01:42.105Z,15.70
2023-07-24T20:04:37.704Z,15.20
2023-07-24T20:07:46.576Z,15.10
2023-07-24T20:10:22.421Z,16.60
2023-07-24T20:13:19.733Z,18.40
2023-07-24T20:16:39.559Z,14.40
2023-07-24T20:19:16.439Z,16.40
2023-07-24T20:22:04.372Z,14.80
2023-07-24T20:25:02.586Z,16.50
2023-07-24T20:28:37.114Z,15.60
2023-07-24T20:31:15.309Z,17.60
2023-07-24T20:34:19.401Z,17.00
2023-07-24T20:37:36.861Z,17.40
2023-07-24T20:40:13.916Z,17.00
2023-07-24T20:43:23.407Z,18.20
2023-07-24T20:46:21.067Z,20.10
2023-07-24T20:49:42.998Z,16.20
2023-07-24T20:52:34.031Z,17.50
2023-07-24T20:55:42.692Z,17.20
2023-07-24T20:58:35.029Z,18.70
2023-07-24T21:01:47.582Z,18.10
2023-07-24T21:05:24.223Z,16.60
2023-07-24T21:08:32.993Z,20.40
2023-07-24T21:12:01.937Z,19.20
2023-07-24T21:15:33.226Z,17.20
2023-07-24T21:19:22.168Z,17.80
2023-07-24T21:22:17.771Z,19.90
2023-07-24T21:25:21.286Z,17.20
2023-07-24T21:28:51.724Z,20.40
2023-07-24T21:32:12.548Z,19.60
2023-07-24T21:35:44.627Z,16.80
2023-07-24T21:38:21.167Z,17.90
2023-07-24T21:41:24.811Z,17.10
2023-07-24T21:45:05.388Z,20.20
2023-07-24T21:48:06.964Z,17.60
2023-07-24T21:51:02.632Z,18.20
2023-07-24T21:54:19.557Z,17.90
2023-07-24T21:57:30.020Z,18.70
2023-07-24T22:00:19.271Z,17.70
2023-07-24T22:03:30.910Z,20.70
2023-07-24T22:07:02.144Z,17.80
2023-07-24T22:10:24.732Z,19.90
2023-07-24T22:13:43.845Z,18.80
2023-07-24T22:16:57.385Z,18.10
2023-07-24T22:20:30.914Z,19.60
2023-07-24T22:23:43.437Z,17.50
2023-07-24T22:26:47.778Z,17.10
2023-07-24T22:30:36.911Z,21.10
2023-07-24T22:34:14.921Z,17.60
2023-07-24T22:37:38.569Z,17.80
2023-07-24T22:41:14.923Z,17.30
2023-07-24T22:44:43.523Z,17.30
2023-07-24T22:47:52.226Z,17.50
2023-07-24T22:51:24.150Z,18.90
2023-07-24T22:55:13.407Z,20.80
2023-07-24T22:58:42.231Z,20.00
2023-07-24T23:02:03.869Z,20.10
2023-07-24T23:05:15.224Z,16.80
2023-07-24T23:08:44.283Z,19.40
2023-07-24T23:12:16.168Z,18.20
2023-07-24T23:15:45.205Z,18.00
2023-07-24T23:18:34.776Z,16.80
2023-07-24T23:22:23.812Z,19.20
2023-07-24T23:25:51.721Z,19.80
2023-07-24T23:29:30.862Z,19.10
2023-07-24T23:33:20.082Z,19.10
2023-07-24T23:37:09.122Z,18.40
2023-07-24T23:40:49.370Z,17.70
2023-07-24T23:43:57.756Z,19.50
2023-07-24T23:47:11.653Z,18.70
2023-07-24T23:50:43.607Z,21.90
2023-07-24T23:53:42.738Z,18.70
2023-07-24T23:57:05.047Z,18.90
